Time;durP1;ratioP1;P1;durP2;ratioP2;P2;SDS_P1;SDS_P2;PMS_P1;PMS_P2;Temp;Humidity;BMP_temperature;BMP_pressure;BME280_temperature;BME280_humidity;BME280_pressure;Samples;Min_cycle;Max_cycle;Signal;HPM_P1;HPM_P2
2023/10/07 00:00:47;;;;;;;10.57;5.82;;;16.40;99.90;;;;;;5037915;28;20022;-59
2023/10/07 00:03:21;;;;;;;15.07;7.45;;;16.40;99.90;;;;;;5029517;28;20018;-59
2023/10/07 00:05:47;;;;;;;16.15;7.40;;;16.30;99.90;;;;;;5030187;28;20021;-58
2023/10/07 00:08:26;;;;;;;17.83;7.80;;;16.30;99.90;;;;;;5033752;28;20311;-58
2023/10/07 00:10:53;;;;;;;16.83;7.25;;;16.20;99.90;;;;;;5033081;28;20018;-58
2023/10/07 00:13:23;;;;;;;23.27;7.93;;;16.10;99.90;;;;;;5034949;28;20021;-58
2023/10/07 00:15:51;;;;;;;16.43;7.83;;;16.10;99.90;;;;;;5030556;28;20076;-58
2023/10/07 00:18:18;;;;;;;17.40;7.43;;;16.10;99.90;;;;;;5037911;28;20799;-58
2023/10/07 00:20:49;;;;;;;21.25;8.32;;;16.10;99.90;;;;;;5038492;28;20462;-58
2023/10/07 00:23:22;;;;;;;15.02;7.10;;;16.10;99.90;;;;;;5042983;28;20169;-58
2023/10/07 00:25:52;;;;;;;16.75;7.22;;;16.20;99.90;;;;;;5039666;28;20021;-58
2023/10/07 00:28:28;;;;;;;16.17;6.88;;;16.20;99.90;;;;;;5029140;28;20021;-58
2023/10/07 00:30:55;;;;;;;16.25;6.72;;;16.10;99.90;;;;;;5029277;28;20506;-58
2023/10/07 00:33:22;;;;;;;9.98;6.43;;;16.10;99.90;;;;;;5037205;28;20029;-58
2023/10/07 00:35:50;;;;;;;14.88;6.72;;;16.10;99.90;;;;;;5032311;28;20024;-58
2023/10/07 00:38:16;;;;;;;18.98;6.88;;;16.10;99.90;;;;;;5047277;28;20017;-58
2023/10/07 00:40:56;;;;;;;16.20;8.20;;;16.10;99.90;;;;;;5042239;28;20079;-58
2023/10/07 00:43:25;;;;;;;;;;;16.20;99.90;;;;;;5041923;28;20017;-58
2023/10/07 00:45:54;;;;;;;19.30;7.38;;;16.20;99.90;;;;;;5036687;28;20247;-58
2023/10/07 00:48:21;;;;;;;12.68;6.53;;;16.20;99.90;;;;;;5039368;28;20025;-59
2023/10/07 00:50:47;;;;;;;14.93;7.18;;;16.20;99.90;;;;;;5042253;28;20489;-59
2023/10/07 00:53:13;;;;;;;21.92;6.82;;;16.20;99.90;;;;;;5038660;28;20025;-58
2023/10/07 00:55:41;;;;;;;16.13;7.15;;;16.20;99.90;;;;;;5037596;28;20028;-58
2023/10/07 00:58:18;;;;;;;14.55;6.13;;;16.20;99.90;;;;;;5045342;28;20013;-58
2023/10/07 01:00:48;;;;;;;12.23;7.72;;;16.20;99.90;;;;;;5036603;28;20022;-59
2023/10/07 01:05:55;;;;;;;11.88;6.25;;;16.20;99.90;;;;;;5034817;28;20021;-58
2023/10/07 01:08:27;;;;;;;19.50;7.22;;;16.30;99.90;;;;;;5034109;28;20026;-58
2023/10/07 01:11:06;;;;;;;14.63;6.72;;;16.20;99.90;;;;;;5043658;28;20453;-58
2023/10/07 01:13:33;;;;;;;14.00;7.72;;;16.20;99.90;;;;;;5037460;28;20400;-58
2023/10/07 01:15:59;;;;;;;12.23;6.55;;;16.20;99.90;;;;;;5032664;28;20021;-58
2023/10/07 01:18:27;;;;;;;16.75;7.53;;;16.20;99.90;;;;;;5034261;28;20064;-58
2023/10/07 01:23:24;;;;;;;15.57;7.65;;;16.20;99.90;;;;;;5033581;28;20097;-58
2023/10/07 01:25:53;;;;;;;13.93;6.68;;;16.20;99.90;;;;;;5043450;28;20025;-58
2023/10/07 01:28:20;;;;;;;17.30;8.30;;;16.20;99.90;;;;;;5045051;28;20483;-59
2023/10/07 01:31:08;;;;;;;21.27;8.13;;;16.30;99.90;;;;;;5034774;28;20529;-59
2023/10/07 01:33:47;;;;;;;21.10;7.55;;;16.30;99.90;;;;;;5040584;28;20063;-58
2023/10/07 01:36:19;;;;;;;23.73;8.48;;;16.30;99.90;;;;;;5047316;28;20493;-58
2023/10/07 01:38:48;;;;;;;15.70;7.07;;;16.30;99.90;;;;;;5034230;28;20103;-57
2023/10/07 01:41:18;;;;;;;15.52;7.10;;;16.20;99.90;;;;;;5040048;28;20417;-57
2023/10/07 01:44:10;;;;;;;19.05;7.97;;;16.30;99.90;;;;;;5034790;28;20025;-57
2023/10/07 01:46:34;;;;;;;13.82;6.57;;;16.20;99.90;;;;;;5034024;28;20521;-57
2023/10/07 01:49:04;;;;;;;19.17;7.00;;;16.30;99.90;;;;;;5034034;28;20025;-58
2023/10/07 01:51:30;;;;;;;14.73;6.07;;;16.20;99.90;;;;;;5044251;28;20025;-58
2023/10/07 01:54:03;;;;;;;14.60;7.10;;;16.20;99.90;;;;;;5045488;28;20029;-58
2023/10/07 01:56:31;;;;;;;16.25;6.85;;;16.20;99.90;;;;;;5038081;28;20029;-58
2023/10/07 01:58:58;;;;;;;15.00;6.95;;;16.20;99.90;;;;;;5038108;28;21374;-58
2023/10/07 02:01:28;;;;;;;17.48;6.75;;;16.20;99.90;;;;;;5033791;28;20453;-57
2023/10/07 02:04:00;;;;;;;13.88;6.22;;;16.20;99.90;;;;;;5036437;28;20490;-58
2023/10/07 02:06:26;;;;;;;14.45;6.07;;;16.20;99.90;;;;;;5038433;28;20033;-58
2023/10/07 02:08:54;;;;;;;20.92;6.57;;;16.20;99.90;;;;;;5034180;28;20030;-58
2023/10/07 02:11:30;;;;;;;21.63;6.38;;;16.20;99.90;;;;;;5040444;28;20496;-58
2023/10/07 02:13:56;;;;;;;15.00;6.85;;;16.20;99.90;;;;;;5041908;28;20096;-58
2023/10/07 02:16:25;;;;;;;13.15;6.65;;;16.20;99.90;;;;;;5034421;28;20092;-58
2023/10/07 02:18:51;;;;;;;13.57;7.35;;;16.20;99.90;;;;;;5040745;28;20423;-58
2023/10/07 02:21:20;;;;;;;17.33;7.22;;;16.20;99.90;;;;;;5044610;28;20031;-59
2023/10/07 02:23:46;;;;;;;15.10;6.03;;;16.30;99.90;;;;;;5043144;28;20032;-59
2023/10/07 02:26:19;;;;;;;18.77;7.35;;;16.20;99.90;;;;;;5033996;28;20460;-59
2023/10/07 02:28:50;;;;;;;12.57;6.05;;;16.20;99.90;;;;;;5035629;28;20518;-59
2023/10/07 02:31:18;;;;;;;11.60;6.55;;;16.20;99.90;;;;;;5040548;28;20026;-58
2023/10/07 02:33:45;;;;;;;12.82;6.20;;;16.20;99.90;;;;;;5035278;28;20056;-58
2023/10/07 02:36:28;;;;;;;15.93;6.65;;;16.20;99.90;;;;;;5040439;28;20411;-58
2023/10/07 02:39:00;;;;;;;16.55;7.75;;;16.20;99.90;;;;;;5041770;28;20024;-58
2023/10/07 02:41:31;;;;;;;16.45;7.32;;;16.20;99.90;;;;;;5033749;28;20025;-58
2023/10/07 02:44:10;;;;;;;19.20;6.82;;;16.20;99.90;;;;;;5034251;28;20054;-59
2023/10/07 02:46:36;;;;;;;14.13;6.38;;;16.20;99.90;;;;;;5047105;28;20040;-59
2023/10/07 02:49:05;;;;;;;19.20;7.50;;;16.10;99.90;;;;;;5035332;28;20029;-58
2023/10/07 02:51:32;;;;;;;18.58;7.10;;;16.20;99.90;;;;;;5033629;28;20061;-58
2023/10/07 02:54:05;;;;;;;12.90;6.85;;;16.20;99.90;;;;;;5039843;28;20428;-58
2023/10/07 02:56:43;;;;;;;13.50;7.22;;;16.20;99.90;;;;;;5034120;28;20029;-58
2023/10/07 02:59:22;;;;;;;12.05;6.93;;;16.20;99.90;;;;;;5040029;28;20565;-58
2023/10/07 03:02:12;;;;;;;21.05;8.05;;;16.20;99.90;;;;;;5034990;28;20029;-59
2023/10/07 03:04:36;;;;;;;14.07;6.90;;;16.20;99.90;;;;;;5033558;28;20072;-59
2023/10/07 03:07:13;;;;;;;14.05;6.60;;;16.10;99.90;;;;;;5035947;28;20120;-58
2023/10/07 03:09:42;;;;;;;11.50;6.53;;;16.10;99.90;;;;;;5037154;28;20495;-58
2023/10/07 03:12:12;;;;;;;14.40;7.00;;;16.10;99.90;;;;;;5034499;28;20021;-58
2023/10/07 03:14:38;;;;;;;15.05;6.95;;;16.20;99.90;;;;;;5034557;28;20021;-59
2023/10/07 03:17:15;;;;;;;19.67;7.63;;;16.20;99.90;;;;;;5037892;28;20025;-58
2023/10/07 03:22:43;;;;;;;16.38;6.18;;;16.20;99.90;;;;;;5042403;28;20040;-59
2023/10/07 03:25:08;;;;;;;15.80;8.13;;;16.20;99.90;;;;;;5040524;28;20155;-59
2023/10/07 03:27:39;;;;;;;13.77;6.53;;;16.20;99.90;;;;;;5034274;28;20108;-59
2023/10/07 03:30:19;;;;;;;14.68;6.65;;;16.20;99.90;;;;;;5034457;28;20017;-59
2023/10/07 03:32:57;;;;;;;15.88;7.55;;;16.20;99.90;;;;;;5041806;28;20067;-58
2023/10/07 03:36:15;;;;;;;14.27;7.53;;;16.10;99.90;;;;;;5038893;28;20032;-58
2023/10/07 03:38:09;;;;;;;15.80;6.78;;;16.10;99.90;;;;;;5036812;28;20048;-59
2023/10/07 03:40:38;;;;;;;13.45;6.90;;;16.20;99.90;;;;;;5039940;28;20037;-58
2023/10/07 03:43:04;;;;;;;13.82;7.93;;;16.20;99.90;;;;;;5035474;28;20021;-58
2023/10/07 03:45:30;;;;;;;11.82;7.32;;;16.10;99.90;;;;;;5032797;28;20025;-58
2023/10/07 03:47:57;;;;;;;14.25;7.25;;;16.20;99.90;;;;;;5042405;28;20032;-58
2023/10/07 03:50:35;;;;;;;16.63;8.07;;;16.10;99.90;;;;;;5034340;28;20029;-57
2023/10/07 03:53:02;;;;;;;20.10;8.20;;;16.10;99.90;;;;;;5033792;28;20033;-58
2023/10/07 03:55:29;;;;;;;17.38;7.22;;;16.10;99.90;;;;;;5034192;28;20053;-58
2023/10/07 03:57:55;;;;;;;14.77;6.85;;;16.10;99.90;;;;;;5036671;28;20028;-57
2023/10/07 04:00:21;;;;;;;14.63;7.03;;;16.10;99.90;;;;;;5038208;28;20055;-58
2023/10/07 04:02:47;;;;;;;13.27;7.15;;;16.10;99.90;;;;;;5037826;28;20018;-58
2023/10/07 04:05:14;;;;;;;15.50;7.35;;;16.10;99.90;;;;;;5034549;28;20034;-58
2023/10/07 04:07:42;;;;;;;14.88;6.85;;;16.10;99.90;;;;;;5035085;28;20391;-58
2023/10/07 04:12:47;;;;;;;15.15;7.15;;;16.10;99.90;;;;;;5041681;28;20021;-58
2023/10/07 04:15:17;;;;;;;16.00;7.07;;;16.10;99.90;;;;;;5037688;28;20027;-58
2023/10/07 04:17:44;;;;;;;16.80;7.45;;;16.10;99.90;;;;;;5038274;28;20029;-58
2023/10/07 04:20:50;;;;;;;12.55;7.43;;;16.10;99.90;;;;;;5037307;28;20021;-58
2023/10/07 04:23:00;;;;;;;18.48;7.97;;;16.00;99.90;;;;;;5036951;28;20079;-58
2023/10/07 04:25:27;;;;;;;18.80;8.38;;;15.90;99.90;;;;;;5046633;28;20101;-58
2023/10/07 04:27:53;;;;;;;14.27;7.70;;;15.90;99.90;;;;;;5040071;28;20344;-58
2023/10/07 04:30:38;;;;;;;14.55;8.50;;;15.80;99.90;;;;;;5049659;28;20029;-58
2023/10/07 04:33:08;;;;;;;16.42;8.40;;;15.80;99.90;;;;;;5038117;28;20021;-58
2023/10/07 04:35:34;;;;;;;18.38;8.27;;;15.70;99.90;;;;;;5043775;28;20504;-58
2023/10/07 04:43:37;;;;;;;16.58;10.15;;;15.60;99.90;;;;;;5042238;28;20060;-59
2023/10/07 04:46:12;;;;;;;17.92;10.38;;;15.50;99.90;;;;;;5038613;28;20083;-59
2023/10/07 04:48:54;;;;;;;27.52;12.35;;;15.50;99.90;;;;;;5039255;28;20030;-59
2023/10/07 04:51:25;;;;;;;19.67;11.48;;;15.30;99.90;;;;;;5043630;28;20120;-59
2023/10/07 04:53:57;;;;;;;;;;;15.20;99.90;;;;;;5041474;28;20125;-59
2023/10/07 04:56:25;;;;;;;19.83;13.50;;;15.20;99.90;;;;;;5046853;28;19908;-59
2023/10/07 04:58:53;;;;;;;20.52;14.13;;;15.00;99.90;;;;;;5043939;28;20526;-59
2023/10/07 05:01:34;;;;;;;18.27;13.27;;;15.00;99.90;;;;;;5037372;28;20376;-59
2023/10/07 05:04:04;;;;;;;;;;;14.90;99.90;;;;;;5038841;28;20029;-59
2023/10/07 05:06:34;;;;;;;20.20;13.98;;;14.80;99.90;;;;;;5043002;28;20004;-59
2023/10/07 05:09:09;;;;;;;25.58;15.00;;;14.80;99.90;;;;;;5036436;28;20083;-59
2023/10/07 05:11:40;;;;;;;25.98;15.10;;;14.80;99.90;;;;;;5041776;28;20056;-59
2023/10/07 05:14:10;;;;;;;20.35;15.15;;;14.80;99.90;;;;;;5042330;28;20029;-59
2023/10/07 05:16:36;;;;;;;21.10;14.53;;;14.70;99.90;;;;;;5044383;28;20021;-58
2023/10/07 05:19:09;;;;;;;30.50;15.63;;;14.70;99.90;;;;;;5042299;28;20091;-59
2023/10/07 05:21:37;;;;;;;25.00;15.73;;;14.70;99.90;;;;;;5038878;28;20030;-59
2023/10/07 05:24:04;;;;;;;23.23;15.30;;;14.70;99.90;;;;;;5044949;28;20040;-59
2023/10/07 05:26:31;;;;;;;25.27;16.15;;;14.80;99.90;;;;;;5037530;28;20391;-59
2023/10/07 05:29:01;;;;;;;25.65;16.98;;;14.80;99.90;;;;;;5044839;28;20052;-59
2023/10/07 05:31:30;;;;;;;23.67;15.68;;;14.70;99.90;;;;;;5040064;28;20059;-59
2023/10/07 05:33:59;;;;;;;26.25;15.85;;;14.80;99.90;;;;;;5043159;28;20052;-59
2023/10/07 05:36:32;;;;;;;25.75;16.70;;;14.80;99.90;;;;;;5042780;28;20032;-59
2023/10/07 05:39:00;;;;;;;22.85;16.75;;;14.80;99.90;;;;;;5041946;28;20494;-59
2023/10/07 05:41:28;;;;;;;22.75;16.17;;;14.80;99.90;;;;;;5038662;28;20053;-59
2023/10/07 05:43:54;;;;;;;23.13;16.67;;;14.80;99.90;;;;;;5041186;28;20028;-59
2023/10/07 05:46:20;;;;;;;26.00;16.23;;;14.70;99.90;;;;;;5039538;28;20507;-59
2023/10/07 05:48:51;;;;;;;24.30;16.55;;;14.70;99.90;;;;;;5040222;28;20036;-59
2023/10/07 05:51:16;;;;;;;29.42;17.90;;;14.70;99.90;;;;;;5044219;28;20025;-59
2023/10/07 05:53:49;;;;;;;26.92;18.38;;;14.70;99.90;;;;;;5042585;28;20539;-59
2023/10/07 05:56:15;;;;;;;27.42;18.73;;;14.80;99.90;;;;;;5044446;28;20009;-59
2023/10/07 05:58:40;;;;;;;24.27;17.38;;;14.80;99.90;;;;;;5042216;28;20013;-59
2023/10/07 06:01:08;;;;;;;29.13;18.83;;;14.90;99.90;;;;;;5040858;28;20017;-59
2023/10/07 06:03:34;;;;;;;28.27;18.85;;;14.90;99.90;;;;;;5042463;28;20017;-59
2023/10/07 06:06:04;;;;;;;28.77;17.58;;;14.90;99.90;;;;;;5046221;28;20375;-59
2023/10/07 06:08:30;;;;;;;27.67;20.02;;;14.90;99.90;;;;;;5040524;28;20036;-59
2023/10/07 06:10:56;;;;;;;29.65;19.80;;;14.90;99.90;;;;;;5038632;28;20036;-59
2023/10/07 06:13:27;;;;;;;27.58;17.95;;;14.90;99.90;;;;;;5038692;28;20017;-59
2023/10/07 06:15:53;;;;;;;29.70;19.45;;;14.90;99.90;;;;;;5039809;28;20068;-59
2023/10/07 06:18:19;;;;;;;26.42;20.08;;;15.00;99.90;;;;;;5038505;28;20028;-59
2023/10/07 06:20:48;;;;;;;25.38;17.73;;;15.00;99.90;;;;;;5039762;28;20029;-60
2023/10/07 06:23:14;;;;;;;28.13;18.40;;;15.00;99.90;;;;;;5038804;28;20562;-59
2023/10/07 06:26:09;;;;;;;24.33;17.23;;;15.00;99.90;;;;;;5037912;28;20096;-59
2023/10/07 06:31:00;;;;;;;27.20;19.05;;;15.10;99.90;;;;;;5037719;28;20039;-59
2023/10/07 06:33:26;;;;;;;33.53;21.30;;;15.10;99.90;;;;;;5045334;28;20025;-60
2023/10/07 06:35:52;;;;;;;32.17;20.17;;;15.10;99.90;;;;;;5037143;28;20682;-59
2023/10/07 06:38:21;;;;;;;33.58;19.58;;;15.20;99.90;;;;;;5047377;28;20112;-59
2023/10/07 06:40:48;;;;;;;30.45;19.75;;;15.20;99.90;;;;;;5045846;28;20043;-59
2023/10/07 06:43:15;;;;;;;31.80;21.38;;;15.20;99.90;;;;;;5040593;28;20308;-59
2023/10/07 06:45:44;;;;;;;33.92;21.40;;;15.20;99.90;;;;;;5047353;28;20025;-59
2023/10/07 06:48:12;;;;;;;29.25;21.58;;;15.20;99.90;;;;;;5039376;28;20109;-59
2023/10/07 06:50:41;;;;;;;34.38;22.40;;;15.20;99.90;;;;;;5047075;28;20063;-59
2023/10/07 06:53:11;;;;;;;28.55;20.88;;;15.20;99.90;;;;;;5041195;28;20504;-59
2023/10/07 06:55:44;;;;;;;30.63;20.27;;;15.20;99.90;;;;;;5036027;28;20029;-60
2023/10/07 06:58:11;;;;;;;28.13;20.33;;;15.30;99.90;;;;;;5041124;28;20021;-59
2023/10/07 07:00:49;;;;;;;33.83;21.85;;;15.30;99.90;;;;;;5046688;28;20110;-59
2023/10/07 07:03:18;;;;;;;31.27;21.30;;;15.30;99.90;;;;;;5040309;28;20021;-59
2023/10/07 07:05:45;;;;;;;34.65;22.33;;;15.30;99.90;;;;;;5038494;28;20029;-59
2023/10/07 07:08:12;;;;;;;30.70;21.15;;;15.30;99.90;;;;;;5045415;28;20545;-59
2023/10/07 07:10:40;;;;;;;35.03;24.35;;;15.40;99.90;;;;;;5039342;28;20021;-59
2023/10/07 07:13:12;;;;;;;30.33;20.48;;;15.40;99.90;;;;;;5041731;28;20025;-59
2023/10/07 07:15:41;;;;;;;36.78;23.65;;;15.40;99.90;;;;;;5041995;28;20024;-59
2023/10/07 07:20:48;;;;;;;36.22;22.95;;;15.40;99.90;;;;;;5043116;28;20044;-59
2023/10/07 07:23:16;;;;;;;38.97;23.92;;;15.40;99.90;;;;;;5041539;28;20021;-59
2023/10/07 07:25:43;;;;;;;30.58;22.90;;;15.40;99.90;;;;;;5040171;28;20026;-59
2023/10/07 07:28:16;;;;;;;31.95;23.15;;;15.50;99.90;;;;;;5045593;28;20032;-59
2023/10/07 07:30:43;;;;;;;31.85;23.80;;;15.50;99.90;;;;;;5035869;28;20475;-59
2023/10/07 07:33:11;;;;;;;36.83;23.02;;;15.50;99.90;;;;;;5043646;28;20826;-59
2023/10/07 07:35:39;;;;;;;35.03;23.60;;;15.50;99.90;;;;;;5042739;28;20112;-59
2023/10/07 07:38:29;;;;;;;36.85;23.98;;;15.50;99.90;;;;;;5042318;28;20043;-59
2023/10/07 07:41:05;;;;;;;35.42;24.70;;;15.60;99.90;;;;;;5041256;28;20017;-59
2023/10/07 07:43:39;;;;;;;44.65;26.20;;;15.50;99.90;;;;;;5042097;28;20215;-59
2023/10/07 07:46:18;;;;;;;40.25;25.73;;;15.50;99.90;;;;;;5041235;28;20634;-59
2023/10/07 07:48:56;;;;;;;44.90;26.38;;;15.50;99.90;;;;;;5048765;28;20398;-59
2023/10/07 07:51:24;;;;;;;39.30;27.80;;;15.60;99.90;;;;;;5041813;28;20437;-59
2023/10/07 07:53:51;;;;;;;40.55;26.02;;;15.60;99.90;;;;;;5048450;28;20471;-58
2023/10/07 07:56:18;;;;;;;44.00;27.25;;;15.60;99.90;;;;;;5041210;28;20033;-58
2023/10/07 07:58:47;;;;;;;45.72;27.00;;;15.60;99.90;;;;;;5038989;28;20041;-58
2023/10/07 08:01:15;;;;;;;39.58;25.25;;;15.70;99.90;;;;;;5043656;28;20013;-59
2023/10/07 08:03:42;;;;;;;46.60;26.88;;;15.70;99.90;;;;;;5037970;28;20464;-59
2023/10/07 08:06:11;;;;;;;45.90;25.83;;;15.80;99.90;;;;;;5045580;28;20490;-59
2023/10/07 08:08:37;;;;;;;36.53;25.80;;;15.90;99.90;;;;;;5039463;28;20025;-59
2023/10/07 08:11:05;;;;;;;43.83;27.98;;;15.90;99.90;;;;;;5042235;28;20029;-59
2023/10/07 08:13:30;;;;;;;42.67;24.55;;;15.90;99.90;;;;;;5039263;28;20411;-59
2023/10/07 08:16:04;;;;;;;43.78;24.98;;;16.00;99.90;;;;;;5042216;28;20390;-59
2023/10/07 08:18:29;;;;;;;37.33;24.65;;;16.00;99.90;;;;;;5041489;28;20095;-59
2023/10/07 08:21:07;;;;;;;37.33;24.23;;;16.00;99.90;;;;;;5041912;28;20021;-59
2023/10/07 08:23:37;;;;;;;38.83;25.30;;;16.00;99.90;;;;;;5039016;28;20071;-59
2023/10/07 08:26:10;;;;;;;35.40;24.95;;;16.10;99.90;;;;;;5038223;28;20013;-59
2023/10/07 08:28:45;;;;;;;35.65;24.63;;;16.10;99.90;;;;;;5048838;28;20108;-59
2023/10/07 08:31:16;;;;;;;37.28;24.40;;;16.10;99.90;;;;;;5048520;28;20025;-59
2023/10/07 08:33:42;;;;;;;37.70;23.73;;;16.10;99.90;;;;;;5040862;28;20438;-59
2023/10/07 08:36:08;;;;;;;35.17;24.00;;;16.10;99.90;;;;;;5042721;28;20019;-59
2023/10/07 08:38:38;;;;;;;37.97;24.25;;;16.10;99.90;;;;;;5042395;28;20014;-59
2023/10/07 08:41:04;;;;;;;38.92;25.70;;;16.10;99.90;;;;;;5031176;28;20029;-59
2023/10/07 08:43:43;;;;;;;39.67;25.27;;;16.10;99.90;;;;;;5042633;28;20479;-59
2023/10/07 08:46:11;;;;;;;35.20;24.27;;;16.00;99.90;;;;;;5044731;28;20021;-59
2023/10/07 08:48:39;;;;;;;35.75;23.58;;;16.10;99.90;;;;;;5042563;28;20017;-59
2023/10/07 08:51:17;;;;;;;35.83;25.00;;;16.10;99.90;;;;;;5045287;28;20040;-59
2023/10/07 08:53:43;;;;;;;37.53;25.05;;;16.10;99.90;;;;;;5048187;28;20092;-59
2023/10/07 08:56:13;;;;;;;37.53;24.15;;;16.10;99.90;;;;;;5043329;28;20386;-59
2023/10/07 08:58:41;;;;;;;34.63;23.23;;;16.10;99.90;;;;;;5045659;28;20021;-59
2023/10/07 09:01:16;;;;;;;39.03;25.58;;;16.10;99.90;;;;;;5046495;28;20067;-59
2023/10/07 09:03:44;;;;;;;41.40;23.48;;;16.10;99.90;;;;;;5043707;28;20080;-59
2023/10/07 09:06:12;;;;;;;38.50;24.88;;;16.20;99.90;;;;;;5046719;28;20386;-59
2023/10/07 09:08:38;;;;;;;35.67;24.15;;;16.20;99.90;;;;;;5045994;28;20017;-59
2023/10/07 09:11:07;;;;;;;39.22;23.98;;;16.20;99.90;;;;;;5049221;28;20382;-59
2023/10/07 09:13:34;;;;;;;37.80;26.48;;;16.20;99.90;;;;;;5044931;28;20029;-60
2023/10/07 09:15:59;;;;;;;35.95;25.75;;;16.20;99.90;;;;;;5041346;28;20013;-59
2023/10/07 09:18:32;;;;;;;45.40;27.38;;;16.30;99.90;;;;;;5044719;28;20363;-59
2023/10/07 09:21:03;;;;;;;40.42;26.20;;;16.20;99.90;;;;;;5049028;28;20020;-59
2023/10/07 09:26:34;;;;;;;44.35;27.92;;;16.20;99.90;;;;;;5044744;28;20082;-59
2023/10/07 09:29:21;;;;;;;43.15;27.90;;;16.10;99.90;;;;;;5043586;28;20017;-60
2023/10/07 09:32:04;;;;;;;41.47;26.80;;;16.10;99.90;;;;;;5049064;28;20020;-59
2023/10/07 09:34:32;;;;;;;46.08;26.90;;;16.20;99.90;;;;;;5051495;28;20390;-60
2023/10/07 09:36:58;;;;;;;41.45;27.38;;;16.20;99.90;;;;;;5047664;28;20017;-59
2023/10/07 09:39:44;;;;;;;39.22;27.30;;;16.20;99.90;;;;;;5048457;28;20029;-60
2023/10/07 09:42:26;;;;;;;45.20;28.80;;;16.30;99.90;;;;;;5042156;28;20032;-59
2023/10/07 09:45:10;;;;;;;40.67;26.95;;;16.40;99.90;;;;;;5042930;28;20053;-60
2023/10/07 09:47:38;;;;;;;40.30;26.90;;;16.40;99.90;;;;;;5041016;28;20033;-60
2023/10/07 09:53:02;;;;;;;43.78;27.52;;;16.50;99.90;;;;;;5040361;28;20026;-59
2023/10/07 09:55:50;;;;;;;41.45;26.00;;;16.50;99.90;;;;;;5047063;28;20462;-59
2023/10/07 09:58:47;;;;;;;40.55;25.20;;;16.50;99.90;;;;;;5037202;28;20017;-59
2023/10/07 10:01:29;;;;;;;40.03;27.58;;;16.60;99.90;;;;;;5042706;28;20106;-59
2023/10/07 10:04:28;;;;;;;40.33;25.00;;;16.60;99.90;;;;;;5049875;28;20486;-59
2023/10/07 10:07:15;;;;;;;39.28;24.23;;;16.70;99.90;;;;;;5048567;28;20112;-59
2023/10/07 10:10:31;;;;;;;35.63;22.88;;;16.80;99.90;;;;;;5048398;28;20087;-59
2023/10/07 10:12:49;;;;;;;46.13;26.35;;;16.90;99.90;;;;;;5041501;28;20505;-60
2023/10/07 10:17:55;;;;;;;43.40;23.58;;;17.00;99.90;;;;;;5048818;28;20017;-59
2023/10/07 10:20:27;;;;;;;38.08;24.00;;;17.00;99.90;;;;;;5048259;28;20486;-59
2023/10/07 10:22:53;;;;;;;33.28;22.33;;;17.00;99.90;;;;;;5045282;28;20052;-59
2023/10/07 10:25:36;;;;;;;41.95;22.85;;;17.00;99.90;;;;;;5045282;28;20054;-59
2023/10/07 10:28:07;;;;;;;38.13;23.38;;;17.00;99.90;;;;;;5042495;28;20100;-59
2023/10/07 10:30:33;;;;;;;37.35;22.42;;;17.00;99.90;;;;;;5044701;28;20316;-59
2023/10/07 10:33:07;;;;;;;33.90;21.80;;;17.10;99.90;;;;;;5046320;28;20036;-59
2023/10/07 10:35:37;;;;;;;37.47;22.02;;;17.10;99.90;;;;;;5046260;28;20111;-59
2023/10/07 10:38:09;;;;;;;33.15;21.67;;;17.20;99.90;;;;;;5039493;28;20013;-59
2023/10/07 10:40:35;;;;;;;37.90;21.48;;;17.20;99.90;;;;;;5046254;28;20129;-59
2023/10/07 10:43:01;;;;;;;34.30;21.40;;;17.20;99.90;;;;;;5046334;28;20100;-59
2023/10/07 10:45:29;;;;;;;36.55;20.67;;;17.20;99.90;;;;;;5044100;28;20029;-59
2023/10/07 10:47:58;;;;;;;33.95;20.98;;;17.30;99.90;;;;;;5047433;28;20029;-59
2023/10/07 10:50:32;;;;;;;33.53;21.23;;;17.30;99.90;;;;;;5040862;28;20025;-59
2023/10/07 10:52:59;;;;;;;40.25;22.30;;;17.40;99.90;;;;;;5045982;28;20074;-59
2023/10/07 10:55:25;;;;;;;34.80;20.85;;;17.30;99.90;;;;;;5047252;28;20223;-59
2023/10/07 10:57:53;;;;;;;37.22;23.08;;;17.30;99.90;;;;;;5045370;28;20021;-59
2023/10/07 11:00:21;;;;;;;41.30;23.73;;;17.30;99.90;;;;;;5046897;28;20056;-59
2023/10/07 11:02:49;;;;;;;39.05;24.05;;;17.20;99.90;;;;;;5044794;28;20021;-59
2023/10/07 11:05:15;;;;;;;44.92;24.27;;;17.20;99.90;;;;;;5047958;28;20466;-59
2023/10/07 11:07:42;;;;;;;43.13;26.48;;;17.10;99.90;;;;;;5047056;28;20036;-59
2023/10/07 11:10:09;;;;;;;37.00;23.80;;;17.10;99.90;;;;;;5046689;28;20020;-59
2023/10/07 11:12:36;;;;;;;42.17;26.35;;;17.10;99.90;;;;;;5046393;28;20332;-59
2023/10/07 11:15:13;;;;;;;40.03;25.80;;;17.00;99.90;;;;;;5048130;28;20096;-59
2023/10/07 11:17:51;;;;;;;50.75;28.38;;;17.00;99.90;;;;;;5044981;28;20028;-59
2023/10/07 11:20:19;;;;;;;46.20;27.27;;;16.90;99.90;;;;;;5046718;28;20405;-59
2023/10/07 11:22:48;;;;;;;45.97;26.55;;;16.90;99.90;;;;;;5044393;28;20028;-59
2023/10/07 11:25:18;;;;;;;44.13;26.88;;;16.90;99.90;;;;;;5046135;28;20017;-59
2023/10/07 11:27:44;;;;;;;50.45;27.17;;;16.90;99.90;;;;;;5047724;28;20056;-59
2023/10/07 11:30:17;;;;;;;42.33;25.52;;;16.90;99.90;;;;;;5047908;28;20056;-59
2023/10/07 11:32:43;;;;;;;45.17;26.77;;;17.00;99.90;;;;;;5046374;28;20049;-59
2023/10/07 11:35:19;;;;;;;38.38;25.98;;;17.20;99.90;;;;;;5046339;28;20029;-59
2023/10/07 11:37:49;;;;;;;40.17;24.65;;;17.30;99.90;;;;;;5045146;28;20526;-59
2023/10/07 11:40:16;;;;;;;37.47;25.17;;;17.40;99.90;;;;;;5046658;28;20036;-59
2023/10/07 11:42:41;;;;;;;37.72;24.02;;;17.50;99.90;;;;;;5045157;28;20033;-59
2023/10/07 11:45:09;;;;;;;37.95;22.75;;;17.60;99.90;;;;;;5046328;28;20035;-59
2023/10/07 11:47:36;;;;;;;32.92;22.73;;;17.80;99.90;;;;;;5045290;28;20107;-59
2023/10/07 11:50:04;;;;;;;36.20;21.90;;;18.00;99.90;;;;;;5047678;28;20017;-58
2023/10/07 11:52:31;;;;;;;34.67;22.02;;;18.30;99.90;;;;;;5046257;28;20040;-58
2023/10/07 11:54:57;;;;;;;30.73;20.40;;;18.50;99.90;;;;;;5047453;28;20360;-58
2023/10/07 11:57:23;;;;;;;31.55;21.15;;;18.50;99.90;;;;;;5046803;28;20025;-58
2023/10/07 11:59:48;;;;;;;30.10;20.38;;;18.60;99.90;;;;;;5046472;28;20047;-59
2023/10/07 12:02:17;;;;;;;31.67;20.08;;;18.70;99.90;;;;;;5047647;28;20025;-59
2023/10/07 12:04:47;;;;;;;23.92;17.70;;;18.70;99.90;;;;;;5045209;28;20071;-59
2023/10/07 12:07:17;;;;;;;25.08;18.27;;;18.80;99.90;;;;;;5046876;28;20045;-59
2023/10/07 12:09:49;;;;;;;28.15;18.05;;;18.90;99.90;;;;;;5045442;28;20040;-59
2023/10/07 12:12:15;;;;;;;28.83;17.00;;;19.20;99.90;;;;;;5046591;28;20021;-59
2023/10/07 12:14:40;;;;;;;26.23;17.83;;;19.70;99.90;;;;;;5046317;28;20017;-59
2023/10/07 12:17:07;;;;;;;27.80;17.13;;;19.90;99.90;;;;;;5046944;28;20096;-58
2023/10/07 12:19:34;;;;;;;22.05;16.08;;;20.00;99.90;;;;;;5046228;28;20025;-59
2023/10/07 12:22:00;;;;;;;29.10;16.63;;;20.00;99.90;;;;;;5040350;28;20025;-59
2023/10/07 12:24:26;;;;;;;26.25;15.23;;;19.90;99.90;;;;;;5046731;28;20025;-59
2023/10/07 12:26:54;;;;;;;22.25;15.00;;;19.70;99.90;;;;;;5045749;28;20336;-59
2023/10/07 12:29:20;;;;;;;24.90;15.07;;;19.60;99.90;;;;;;5046888;28;20044;-59
2023/10/07 12:31:47;;;;;;;22.33;13.05;;;19.50;99.90;;;;;;5046896;28;20336;-59
2023/10/07 12:34:16;;;;;;;25.15;13.52;;;19.40;99.90;;;;;;5050730;28;20020;-59
2023/10/07 12:36:42;;;;;;;18.83;13.10;;;19.40;99.90;;;;;;5051224;28;20100;-59
2023/10/07 12:39:10;;;;;;;20.42;13.52;;;19.30;99.90;;;;;;5051739;28;20375;-58
2023/10/07 12:41:39;;;;;;;20.25;12.85;;;19.20;99.90;;;;;;5051742;28;20044;-58
2023/10/07 12:44:09;;;;;;;19.92;12.40;;;19.10;99.90;;;;;;5051101;28;20028;-59
2023/10/07 12:46:39;;;;;;;24.13;12.95;;;19.00;99.90;;;;;;5050299;28;20383;-58
2023/10/07 12:49:10;;;;;;;19.23;12.82;;;19.10;99.90;;;;;;5051072;28;20478;-58
2023/10/07 12:51:42;;;;;;;20.60;12.82;;;19.00;99.90;;;;;;5050423;28;20029;-58
2023/10/07 12:54:09;;;;;;;18.85;12.07;;;18.90;99.90;;;;;;5049666;28;20024;-59
2023/10/07 12:56:38;;;;;;;19.52;12.00;;;18.80;99.90;;;;;;5050665;28;20044;-58
2023/10/07 12:59:18;;;;;;;18.95;12.63;;;18.80;99.90;;;;;;5051235;28;20013;-59
2023/10/07 13:01:56;;;;;;;17.48;11.00;;;18.80;99.90;;;;;;5050397;28;20038;-59
2023/10/07 13:04:25;;;;;;;21.48;12.65;;;18.80;99.90;;;;;;5050973;28;20048;-58
2023/10/07 13:07:00;;;;;;;19.50;11.45;;;18.70;99.90;;;;;;5050633;28;20200;-59
2023/10/07 13:09:30;;;;;;;19.55;11.57;;;18.70;99.90;;;;;;5049812;28;20029;-59
2023/10/07 13:11:59;;;;;;;20.10;10.37;;;18.60;99.90;;;;;;5051472;28;20021;-59
2023/10/07 13:14:26;;;;;;;15.32;10.25;;;18.60;99.90;;;;;;5051045;28;20092;-59
2023/10/07 13:16:59;;;;;;;16.60;10.85;;;18.60;99.90;;;;;;5050718;28;20072;-59